createdAt,value
2019-05-22T00:00:04.066Z,936.32
2019-05-22T00:01:04.746Z,936.28
2019-05-22T00:02:05.533Z,936.29
2019-05-22T00:03:06.247Z,936.29
2019-05-22T00:04:07.008Z,936.26
2019-05-22T00:05:07.699Z,936.26
2019-05-22T00:06:08.107Z,936.31
2019-05-22T00:07:08.818Z,936.28
2019-05-22T00:08:09.208Z,936.26
2019-05-22T00:09:09.418Z,936.24
2019-05-22T00:10:09.824Z,936.27
2019-05-22T00:11:10.506Z,936.27
2019-05-22T00:12:11.209Z,936.31
2019-05-22T00:13:11.607Z,936.29
2019-05-22T00:14:12.294Z,936.31
2019-05-22T00:15:13.326Z,936.21
2019-05-22T00:16:13.838Z,936.25
2019-05-22T00:17:14.601Z,936.32
2019-05-22T00:18:15.045Z,936.34
2019-05-22T00:19:15.265Z,936.31
2019-05-22T00:20:15.382Z,936.33
2019-05-22T00:21:16.398Z,936.34
2019-05-22T00:22:16.806Z,936.27
2019-05-22T00:23:17.239Z,936.37
2019-05-22T00:24:17.646Z,936.34
2019-05-22T00:25:18.042Z,936.3
2019-05-22T00:26:18.157Z,936.34
2019-05-22T00:27:18.567Z,936.34
2019-05-22T00:28:18.972Z,936.34
2019-05-22T00:29:19.621Z,936.32
2019-05-22T00:30:20.351Z,936.36
2019-05-22T00:31:20.777Z,936.35
2019-05-22T00:32:21.165Z,936.37
2019-05-22T00:33:21.561Z,936.36
2019-05-22T00:34:21.957Z,936.38
2019-05-22T00:35:22.427Z,936.36
2019-05-22T00:36:22.864Z,936.35
2019-05-22T00:37:23.561Z,936.3
2019-05-22T00:38:24.558Z,936.33
2019-05-22T00:39:24.777Z,936.37
2019-05-22T00:40:25.817Z,936.37
2019-05-22T00:41:26.419Z,936.37
2019-05-22T00:42:26.828Z,936.42
2019-05-22T00:43:27.518Z,936.4
2019-05-22T00:44:28.224Z,936.35
2019-05-22T00:45:28.347Z,936.35
2019-05-22T00:46:28.751Z,936.3
2019-05-22T00:47:28.863Z,936.31
2019-05-22T00:48:29.550Z,936.32
2019-05-22T00:49:30.069Z,936.35
2019-05-22T00:50:30.459Z,936.3
2019-05-22T00:51:31.327Z,936.32
2019-05-22T00:52:31.450Z,936.35
2019-05-22T00:53:32.168Z,936.36
2019-05-22T00:54:32.588Z,936.36
2019-05-22T00:55:33.298Z,936.33
2019-05-22T00:56:33.710Z,936.36
2019-05-22T00:57:34.411Z,936.38
2019-05-22T00:58:35.110Z,936.37
2019-05-22T00:59:35.354Z,936.37
2019-05-22T01:00:36.054Z,936.42
2019-05-22T01:01:37.138Z,936.38
2019-05-22T01:02:37.894Z,936.39
2019-05-22T01:03:38.578Z,936.36
2019-05-22T01:04:39.277Z,936.37
2019-05-22T01:05:39.414Z,936.33
2019-05-22T01:06:40.121Z,936.35
2019-05-22T01:07:40.823Z,936.33
2019-05-22T01:08:41.784Z,936.37
2019-05-22T01:09:42.719Z,936.38
2019-05-22T01:10:43.452Z,936.39
2019-05-22T01:11:43.854Z,936.33
2019-05-22T01:12:44.549Z,936.4
2019-05-22T01:13:44.955Z,936.41
2019-05-22T01:14:45.646Z,936.38
2019-05-22T01:15:46.093Z,936.33
2019-05-22T01:16:46.799Z,936.37
2019-05-22T01:17:47.795Z,936.41
2019-05-22T01:18:48.498Z,936.46
2019-05-22T01:19:49.471Z,936.51
2019-05-22T01:20:49.581Z,936.52
2019-05-22T01:21:50.026Z,936.51
2019-05-22T01:22:50.761Z,936.5
2019-05-22T01:23:51.242Z,936.46
2019-05-22T01:24:51.955Z,936.47
2019-05-22T01:25:52.355Z,936.51
2019-05-22T01:26:52.761Z,936.5
2019-05-22T01:27:53.153Z,936.41
2019-05-22T01:28:53.556Z,936.43
2019-05-22T01:29:53.821Z,936.41
2019-05-22T01:30:54.556Z,936.43
2019-05-22T01:31:54.940Z,936.49
2019-05-22T01:32:55.054Z,936.48
2019-05-22T01:33:56.014Z,936.46
2019-05-22T01:34:56.427Z,936.47
2019-05-22T01:35:56.840Z,936.42
2019-05-22T01:36:57.547Z,936.44
2019-05-22T01:37:58.243Z,936.42
2019-05-22T01:38:58.370Z,936.42
2019-05-22T01:39:59.083Z,936.45
2019-05-22T01:40:59.811Z,936.42
2019-05-22T01:42:00.809Z,936.42
2019-05-22T01:43:01.223Z,936.42
2019-05-22T01:44:01.906Z,936.43
2019-05-22T01:45:06.341Z,936.44
2019-05-22T01:46:02.536Z,936.45
2019-05-22T01:47:02.929Z,936.46
2019-05-22T01:48:04.020Z,936.48
2019-05-22T01:49:04.142Z,936.48
2019-05-22T01:50:05.088Z,936.41
2019-05-22T01:51:05.388Z,936.46
2019-05-22T01:52:06.096Z,936.45
2019-05-22T01:53:06.276Z,936.46
2019-05-22T01:54:07.275Z,936.47
2019-05-22T01:55:07.977Z,936.44
2019-05-22T01:56:08.635Z,936.45
2019-05-22T01:57:09.288Z,936.44
2019-05-22T01:58:09.401Z,936.45
2019-05-22T01:59:10.110Z,936.45
2019-05-22T02:00:10.643Z,936.42
2019-05-22T02:01:11.629Z,936.44
2019-05-22T02:02:12.059Z,936.36
2019-05-22T02:03:12.176Z,936.39
2019-05-22T02:04:14.765Z,936.42
2019-05-22T02:05:13.321Z,936.43
2019-05-22T02:06:13.719Z,936.42
2019-05-22T02:07:14.720Z,936.43
2019-05-22T02:08:14.832Z,936.43
2019-05-22T02:09:15.263Z,936.41
2019-05-22T02:10:15.676Z,936.42
2019-05-22T02:11:15.799Z,936.46
2019-05-22T02:12:16.206Z,936.44
2019-05-22T02:13:16.892Z,936.38
2019-05-22T02:14:17.022Z,936.48
2019-05-22T02:15:17.284Z,936.46
2019-05-22T02:16:17.397Z,936.49
2019-05-22T02:17:18.125Z,936.45
2019-05-22T02:18:18.508Z,936.42
2019-05-22T02:19:18.912Z,936.49
2019-05-22T02:20:19.275Z,936.45
2019-05-22T02:21:19.419Z,936.45
2019-05-22T02:22:20.146Z,936.45
2019-05-22T02:23:20.837Z,936.47
2019-05-22T02:24:21.533Z,936.51
2019-05-22T02:25:21.947Z,936.42
2019-05-22T02:26:22.949Z,936.42
2019-05-22T02:27:23.347Z,936.45
2019-05-22T02:28:24.340Z,936.48
2019-05-22T02:29:25.341Z,936.47
2019-05-22T02:30:26.368Z,936.44
2019-05-22T02:31:26.653Z,936.47
2019-05-22T02:32:27.354Z,936.47
2019-05-22T02:33:27.773Z,936.5
2019-05-22T02:34:28.487Z,936.47
2019-05-22T02:35:29.180Z,936.43
2019-05-22T02:36:29.468Z,936.46
2019-05-22T02:37:29.612Z,936.44
2019-05-22T02:38:30.304Z,936.45
2019-05-22T02:39:30.637Z,936.48
2019-05-22T02:40:31.318Z,936.48
2019-05-22T02:41:31.788Z,936.49
2019-05-22T02:42:32.066Z,936.5
2019-05-22T02:43:32.483Z,936.48
2019-05-22T02:44:33.184Z,936.5
2019-05-22T02:45:33.493Z,936.49
2019-05-22T02:46:34.571Z,936.55
2019-05-22T02:47:34.697Z,936.52
2019-05-22T02:48:34.964Z,936.51
2019-05-22T02:49:36.019Z,936.51
2019-05-22T02:50:36.298Z,936.56
2019-05-22T02:51:37.007Z,936.56
2019-05-22T02:52:37.429Z,936.54
2019-05-22T02:53:38.112Z,936.53
2019-05-22T02:54:38.521Z,936.53
2019-05-22T02:55:39.516Z,936.57
2019-05-22T02:56:40.510Z,936.53
2019-05-22T02:57:41.211Z,936.53
2019-05-22T02:58:41.896Z,936.56
2019-05-22T02:59:42.909Z,936.57
2019-05-22T03:00:44.001Z,936.59
2019-05-22T03:01:44.119Z,936.62
2019-05-22T03:02:44.515Z,936.63
2019-05-22T03:03:44.919Z,936.61
2019-05-22T03:04:45.919Z,936.6
2019-05-22T03:05:46.889Z,936.63
2019-05-22T03:06:47.446Z,936.61
2019-05-22T03:07:48.129Z,936.65
2019-05-22T03:08:48.831Z,936.65
2019-05-22T03:09:49.261Z,936.63
2019-05-22T03:10:49.524Z,936.65
2019-05-22T03:11:50.507Z,936.58
2019-05-22T03:12:51.207Z,936.62
2019-05-22T03:13:51.489Z,936.65
2019-05-22T03:14:51.752Z,936.63
2019-05-22T03:15:52.299Z,936.62
2019-05-22T03:16:53.272Z,936.61
2019-05-22T03:17:54.017Z,936.64
2019-05-22T03:19:08.152Z,936.61
2019-05-22T03:19:54.847Z,936.64
2019-05-22T03:20:55.506Z,936.63
2019-05-22T03:21:55.904Z,936.67
2019-05-22T03:22:56.886Z,936.66
2019-05-22T03:23:57.326Z,936.66
2019-05-22T03:24:57.754Z,936.65
2019-05-22T03:25:58.013Z,936.68
2019-05-22T03:26:59.005Z,936.68
2019-05-22T03:27:59.423Z,936.67
2019-05-22T03:29:00.432Z,936.7
2019-05-22T03:30:00.852Z,936.71
2019-05-22T03:31:01.187Z,936.72
2019-05-22T03:32:01.918Z,936.77
2019-05-22T03:33:03.033Z,936.76
2019-05-22T03:34:03.665Z,936.76
2019-05-22T03:35:04.007Z,936.76
2019-05-22T03:36:04.491Z,936.75
2019-05-22T03:37:04.617Z,936.77
2019-05-22T03:38:05.325Z,936.76
2019-05-22T03:39:06.042Z,936.83
2019-05-22T03:40:06.477Z,936.75
2019-05-22T03:41:07.348Z,936.73
2019-05-22T03:42:07.647Z,936.76
2019-05-22T03:43:07.777Z,936.74
2019-05-22T03:44:08.499Z,936.8
2019-05-22T03:45:08.911Z,936.77
2019-05-22T03:46:09.947Z,936.79
2019-05-22T03:47:10.353Z,936.77
2019-05-22T03:48:11.347Z,936.79
2019-05-22T03:49:27.870Z,936.77
2019-05-22T03:50:12.607Z,936.81
2019-05-22T03:51:13.241Z,936.8
2019-05-22T03:52:14.262Z,936.86
2019-05-22T03:53:14.947Z,936.8
2019-05-22T03:54:15.957Z,936.83
2019-05-22T03:55:16.384Z,936.81
2019-05-22T03:56:17.106Z,936.83
2019-05-22T03:57:18.109Z,936.84
2019-05-22T03:58:18.816Z,936.86
2019-05-22T03:59:19.523Z,936.87
2019-05-22T04:00:20.253Z,936.86
2019-05-22T04:01:20.886Z,936.88
2019-05-22T04:02:21.894Z,936.9
2019-05-22T04:03:22.168Z,936.87
2019-05-22T04:04:22.602Z,936.9
2019-05-22T04:05:22.897Z,936.91
2019-05-22T04:06:23.879Z,936.91
2019-05-22T04:07:24.309Z,936.94
2019-05-22T04:08:24.580Z,936.94
2019-05-22T04:09:25.633Z,936.95
2019-05-22T04:10:25.852Z,936.97
2019-05-22T04:11:26.460Z,936.97
2019-05-22T04:12:27.181Z,936.97
2019-05-22T04:13:27.868Z,936.97
2019-05-22T04:14:28.578Z,937.02
2019-05-22T04:15:29.579Z,937
2019-05-22T04:16:29.864Z,937.01
2019-05-22T04:17:30.143Z,937.05
2019-05-22T04:18:30.925Z,937.05
2019-05-22T04:19:47.227Z,937.06
2019-05-22T04:20:31.972Z,937.06
2019-05-22T04:21:32.638Z,937.05
2019-05-22T04:22:33.068Z,937.04
2019-05-22T04:23:33.342Z,937.05
2019-05-22T04:24:33.764Z,937.08
2019-05-22T04:25:34.482Z,937.09
2019-05-22T04:26:35.081Z,937.06
2019-05-22T04:27:35.841Z,937.05
2019-05-22T04:28:36.259Z,937.06
2019-05-22T04:29:36.396Z,937.06
2019-05-22T04:30:36.521Z,937.06
2019-05-22T04:31:36.751Z,937.06
2019-05-22T04:32:37.479Z,937.05
2019-05-22T04:33:38.170Z,937.05
2019-05-22T04:34:38.887Z,937.03
2019-05-22T04:35:39.597Z,937.07
2019-05-22T04:36:40.307Z,937.03
2019-05-22T04:37:40.788Z,937.08
2019-05-22T04:38:41.249Z,937.07
2019-05-22T04:39:42.226Z,937.06
2019-05-22T04:40:42.993Z,937.05
2019-05-22T04:41:43.387Z,937.06
2019-05-22T04:42:44.091Z,937.08
2019-05-22T04:43:44.500Z,937.08
2019-05-22T04:44:45.203Z,937.05
2019-05-22T04:45:45.900Z,937.08
2019-05-22T04:46:46.249Z,937.12
2019-05-22T04:47:47.219Z,937.08
2019-05-22T04:48:48.229Z,937.14
2019-05-22T04:50:06.178Z,937.15
2019-05-22T04:50:49.187Z,937.1
2019-05-22T04:51:49.754Z,937.13
2019-05-22T04:52:50.441Z,937.16
2019-05-22T04:53:51.167Z,937.19
2019-05-22T04:54:52.658Z,937.21
2019-05-22T04:55:53.093Z,937.19
2019-05-22T04:56:53.791Z,937.26
2019-05-22T04:57:54.101Z,937.25
2019-05-22T04:58:54.811Z,937.25
2019-05-22T04:59:55.810Z,937.25
2019-05-22T05:00:56.561Z,937.27
2019-05-22T05:01:56.883Z,937.27
2019-05-22T05:02:57.569Z,937.3
2019-05-22T05:03:58.003Z,937.28
2019-05-22T05:04:59.012Z,937.28
2019-05-22T05:05:59.157Z,937.3
2019-05-22T05:06:59.809Z,937.31
2019-05-22T05:08:00.220Z,937.29
2019-05-22T05:09:00.633Z,937.3
2019-05-22T05:10:00.761Z,937.33
2019-05-22T05:11:01.743Z,937.31
2019-05-22T05:12:02.019Z,937.29
2019-05-22T05:13:02.750Z,937.3
2019-05-22T05:14:03.176Z,937.33
2019-05-22T05:15:03.601Z,937.33
2019-05-22T05:16:04.003Z,937.31
2019-05-22T05:17:04.699Z,937.33
2019-05-22T05:18:05.098Z,937.28
2019-05-22T05:19:05.807Z,937.34
2019-05-22T05:20:20.189Z,937.37
2019-05-22T05:21:07.270Z,937.39
2019-05-22T05:22:07.922Z,937.37
2019-05-22T05:23:08.313Z,937.38
2019-05-22T05:24:09.006Z,937.38
2019-05-22T05:25:09.127Z,937.32
2019-05-22T05:26:09.805Z,937.42
2019-05-22T05:27:10.207Z,937.38
2019-05-22T05:28:10.598Z,937.39
2019-05-22T05:29:11.006Z,937.43
2019-05-22T05:30:11.742Z,937.39
2019-05-22T05:31:12.161Z,937.38
2019-05-22T05:32:12.952Z,937.32
2019-05-22T05:33:13.379Z,937.38
2019-05-22T05:34:14.150Z,937.4
2019-05-22T05:35:14.573Z,937.38
2019-05-22T05:36:15.287Z,937.39
2019-05-22T05:37:15.436Z,937.44
2019-05-22T05:38:15.841Z,937.45
2019-05-22T05:39:16.258Z,937.45
2019-05-22T05:40:17.249Z,937.46
2019-05-22T05:41:18.243Z,937.5
2019-05-22T05:42:18.466Z,937.48
2019-05-22T05:43:19.155Z,937.54
2019-05-22T05:44:19.285Z,937.56
2019-05-22T05:45:19.979Z,937.56
2019-05-22T05:46:20.097Z,937.55
2019-05-22T05:47:20.564Z,937.55
2019-05-22T05:48:21.261Z,937.59
2019-05-22T05:49:21.542Z,937.6
2019-05-22T05:50:36.464Z,937.62
2019-05-22T05:51:22.370Z,937.6
2019-05-22T05:52:23.307Z,937.61
2019-05-22T05:53:24.287Z,937.62
2019-05-22T05:54:24.419Z,937.64
2019-05-22T05:55:24.712Z,937.69
2019-05-22T05:56:25.146Z,937.62
2019-05-22T05:57:25.280Z,937.67
2019-05-22T05:58:25.471Z,937.69
2019-05-22T05:59:26.163Z,937.6
2019-05-22T06:00:26.443Z,937.67
2019-05-22T06:01:27.224Z,937.63
2019-05-22T06:02:28.083Z,937.62
2019-05-22T06:03:28.510Z,937.64
2019-05-22T06:04:34.438Z,937.65
2019-05-22T06:05:29.200Z,937.66
2019-05-22T06:06:29.898Z,937.65
2019-05-22T06:07:30.973Z,937.62
2019-05-22T06:08:32.001Z,937.62
2019-05-22T06:09:31.709Z,937.67
2019-05-22T06:10:32.119Z,937.66
2019-05-22T06:11:32.535Z,937.64
2019-05-22T06:12:33.580Z,937.7
2019-05-22T06:13:33.838Z,937.65
2019-05-22T06:14:34.873Z,937.66
2019-05-22T06:15:46.246Z,937.69
2019-05-22T06:16:36.370Z,937.68
2019-05-22T06:17:36.999Z,937.68
2019-05-22T06:18:37.301Z,937.71
2019-05-22T06:19:37.759Z,937.7
2019-05-22T06:20:38.448Z,937.76
2019-05-22T06:21:39.271Z,937.76
2019-05-22T06:22:40.222Z,937.74
2019-05-22T06:23:41.283Z,937.74
2019-05-22T06:24:41.714Z,937.76
2019-05-22T06:25:42.403Z,937.77
2019-05-22T06:26:42.804Z,937.77
2019-05-22T06:27:43.507Z,937.79
2019-05-22T06:28:44.238Z,937.76
2019-05-22T06:29:44.649Z,937.77
2019-05-22T06:30:44.775Z,937.79
2019-05-22T06:31:45.183Z,937.79
2019-05-22T06:32:45.757Z,937.79
2019-05-22T06:33:46.550Z,937.78
2019-05-22T06:34:46.967Z,937.79
2019-05-22T06:35:47.713Z,937.81
2019-05-22T06:36:48.172Z,937.8
2019-05-22T06:37:49.169Z,937.83
2019-05-22T06:38:49.542Z,937.85
2019-05-22T06:39:50.574Z,937.85
2019-05-22T06:40:50.694Z,937.86
2019-05-22T06:41:51.744Z,937.88
2019-05-22T06:42:52.287Z,937.88
2019-05-22T06:43:52.416Z,937.91
2019-05-22T06:44:52.677Z,937.91
2019-05-22T06:45:53.783Z,937.93
2019-05-22T06:46:53.379Z,937.91
2019-05-22T06:47:54.061Z,937.92
2019-05-22T06:48:54.471Z,937.92
2019-05-22T06:49:55.158Z,937.96
2019-05-22T06:50:55.583Z,937.94
2019-05-22T06:51:55.808Z,937.99
2019-05-22T06:53:09.245Z,938.03
2019-05-22T06:53:56.382Z,938.06
2019-05-22T06:54:56.827Z,938.07
2019-05-22T06:55:57.051Z,938.08
2019-05-22T06:56:58.039Z,938.13
2019-05-22T06:57:59.121Z,938.12
2019-05-22T06:58:59.543Z,938.1
2019-05-22T07:00:12.763Z,938.17
2019-05-22T07:01:00.573Z,938.13
2019-05-22T07:02:01.869Z,938.18
2019-05-22T07:03:01.946Z,938.11
2019-05-22T07:04:02.996Z,938.16
2019-05-22T07:05:04.007Z,938.14
2019-05-22T07:06:04.325Z,938.14
2019-05-22T07:07:05.390Z,938.09
2019-05-22T07:08:06.229Z,938.14
2019-05-22T07:09:06.178Z,938.15
2019-05-22T07:10:07.156Z,938.17
2019-05-22T07:11:08.206Z,938.15
2019-05-22T07:12:08.945Z,938.21
2019-05-22T07:13:09.700Z,938.14
2019-05-22T07:14:10.214Z,938.2
2019-05-22T07:15:10.917Z,938.21
2019-05-22T07:16:11.677Z,938.21
2019-05-22T07:17:12.219Z,938.17
2019-05-22T07:18:13.156Z,938.16
2019-05-22T07:19:12.767Z,938.15
2019-05-22T07:20:13.301Z,938.15
2019-05-22T07:21:13.411Z,938.18
2019-05-22T07:22:14.043Z,938.12
2019-05-22T07:23:14.523Z,938.16
2019-05-22T07:24:15.248Z,938.14
2019-05-22T07:25:15.685Z,938.14
2019-05-22T07:26:16.397Z,938.09
2019-05-22T07:27:17.204Z,938.09
2019-05-22T07:28:17.666Z,938.12
2019-05-22T07:29:18.394Z,938.13
2019-05-22T07:30:19.116Z,938.11
2019-05-22T07:31:19.943Z,938.09
2019-05-22T07:32:20.802Z,938.15
2019-05-22T07:33:20.977Z,938.14
2019-05-22T07:34:21.507Z,938.1
2019-05-22T07:35:22.566Z,938.16
2019-05-22T07:36:22.908Z,938.11
2019-05-22T07:37:23.857Z,938.13
2019-05-22T07:38:24.601Z,938.18
2019-05-22T07:39:24.650Z,938.18
2019-05-22T07:40:25.223Z,938.16
2019-05-22T07:41:25.978Z,938.17
2019-05-22T07:42:26.376Z,938.16
2019-05-22T07:43:27.327Z,938.2
2019-05-22T07:44:27.966Z,938.17
2019-05-22T07:45:28.100Z,938.16
2019-05-22T07:46:30.889Z,938.15
2019-05-22T07:47:30.078Z,938.17
2019-05-22T07:48:30.721Z,938.2
2019-05-22T07:49:31.710Z,938.12
2019-05-22T07:50:31.983Z,938.13
2019-05-22T07:51:33.045Z,938.15
2019-05-22T07:52:33.372Z,938.17
2019-05-22T07:53:33.917Z,938.17
2019-05-22T07:54:34.395Z,938.14
2019-05-22T07:55:34.516Z,938.14
2019-05-22T07:56:35.007Z,938.17
2019-05-22T07:57:35.426Z,938.16
2019-05-22T07:58:35.835Z,938.1
2019-05-22T07:59:36.109Z,938.14
2019-05-22T08:00:36.461Z,938.15
2019-05-22T08:01:36.530Z,938.16
2019-05-22T08:02:36.746Z,938.17
2019-05-22T08:03:37.287Z,938.16
2019-05-22T08:04:38.286Z,938.16
2019-05-22T08:05:38.416Z,938.18
2019-05-22T08:06:38.630Z,938.14
2019-05-22T08:07:39.458Z,938.16
2019-05-22T08:08:39.858Z,938.16
2019-05-22T08:09:40.348Z,938.18
2019-05-22T08:10:40.650Z,938.16
2019-05-22T08:11:41.648Z,938.15
2019-05-22T08:12:42.118Z,938.15
2019-05-22T08:13:42.994Z,938.14
2019-05-22T08:14:43.948Z,938.19
2019-05-22T08:15:47.524Z,938.16
2019-05-22T08:16:44.273Z,938.13
2019-05-22T08:17:44.992Z,938.15
2019-05-22T08:18:45.456Z,938.16
2019-05-22T08:19:45.760Z,938.14
2019-05-22T08:20:46.494Z,938.14
2019-05-22T08:21:47.085Z,938.17
2019-05-22T08:22:47.428Z,938.16
2019-05-22T08:23:47.656Z,938.22
2019-05-22T08:24:48.056Z,938.2
2019-05-22T08:25:49.043Z,938.18
2019-05-22T08:26:54.083Z,938.2
2019-05-22T08:27:49.870Z,938.24
2019-05-22T08:28:51.048Z,938.24
2019-05-22T08:29:51.873Z,938.23
2019-05-22T08:30:52.132Z,938.23
2019-05-22T08:31:52.540Z,938.24
2019-05-22T08:32:53.403Z,938.24
2019-05-22T08:33:54.104Z,938.24
2019-05-22T08:34:54.331Z,938.27
2019-05-22T08:35:54.758Z,938.24
2019-05-22T08:36:55.737Z,938.26
2019-05-22T08:37:56.714Z,938.27
2019-05-22T08:38:56.853Z,938.26
2019-05-22T08:39:57.053Z,938.26
2019-05-22T08:40:57.362Z,938.25
2019-05-22T08:41:58.154Z,938.26
2019-05-22T08:42:58.666Z,938.29
2019-05-22T08:44:18.313Z,938.3
2019-05-22T08:45:18.778Z,938.27
2019-05-22T08:46:19.039Z,938.28
2019-05-22T08:47:19.461Z,938.31
2019-05-22T08:48:20.228Z,938.33
2019-05-22T08:49:20.973Z,938.34
2019-05-22T08:50:21.426Z,938.36
2019-05-22T08:51:21.871Z,938.34
2019-05-22T08:52:23.868Z,938.36
2019-05-22T08:53:23.482Z,938.4
2019-05-22T08:54:24.506Z,938.41
2019-05-22T08:55:25.218Z,938.41
2019-05-22T08:56:26.145Z,938.44
2019-05-22T08:57:27.128Z,938.43
2019-05-22T08:58:27.542Z,938.42
2019-05-22T08:59:28.256Z,938.43
2019-05-22T09:00:28.377Z,938.46
2019-05-22T09:01:29.145Z,938.46
2019-05-22T09:02:29.626Z,938.46
2019-05-22T09:03:30.307Z,938.42
2019-05-22T09:04:30.557Z,938.43
2019-05-22T09:05:30.840Z,938.46
2019-05-22T09:06:31.927Z,938.42
2019-05-22T09:07:32.732Z,938.44
2019-05-22T09:08:33.142Z,938.45
2019-05-22T09:09:33.849Z,938.44
2019-05-22T09:10:34.380Z,938.47
2019-05-22T09:11:34.679Z,938.51
2019-05-22T09:12:35.522Z,938.5
2019-05-22T09:13:36.414Z,938.52
2019-05-22T09:14:36.893Z,938.51
2019-05-22T09:15:38.314Z,938.52
2019-05-22T09:16:38.354Z,938.51
2019-05-22T09:17:39.791Z,938.55
2019-05-22T09:18:39.862Z,938.55
2019-05-22T09:19:40.935Z,938.56
2019-05-22T09:20:49.103Z,938.57
2019-05-22T09:21:42.196Z,938.54
2019-05-22T09:22:42.309Z,938.59
2019-05-22T09:23:43.064Z,938.61
2019-05-22T09:24:43.262Z,938.6
2019-05-22T09:25:45.290Z,938.62
2019-05-22T09:26:44.060Z,938.6
2019-05-22T09:27:44.715Z,938.62
2019-05-22T09:28:44.799Z,938.6
2019-05-22T09:29:45.259Z,938.63
2019-05-22T09:30:45.657Z,938.63
2019-05-22T09:31:46.110Z,938.64
2019-05-22T09:32:47.614Z,938.65
2019-05-22T09:33:47.015Z,938.66
2019-05-22T09:34:47.788Z,938.61
2019-05-22T09:35:48.508Z,938.65
2019-05-22T09:36:49.233Z,938.67
2019-05-22T09:37:49.699Z,938.64
2019-05-22T09:38:52.309Z,938.68
2019-05-22T09:39:51.459Z,938.67
2019-05-22T09:40:51.873Z,938.66
2019-05-22T09:41:52.354Z,938.67
2019-05-22T09:42:52.633Z,938.66
2019-05-22T09:43:54.141Z,938.65
2019-05-22T09:44:53.826Z,938.63
2019-05-22T09:45:54.916Z,938.65
2019-05-22T09:46:55.565Z,938.67
2019-05-22T09:47:55.939Z,938.66
2019-05-22T09:48:58.081Z,938.68
2019-05-22T09:49:57.843Z,938.66
2019-05-22T09:50:58.134Z,938.69
2019-05-22T09:51:58.173Z,938.69
2019-05-22T09:52:59.022Z,938.7
2019-05-22T09:53:59.422Z,938.69
2019-05-22T09:54:59.547Z,938.7
2019-05-22T09:56:01.130Z,938.73
2019-05-22T09:57:01.035Z,938.72
2019-05-22T09:58:01.462Z,938.72
2019-05-22T09:59:02.482Z,938.72
2019-05-22T10:00:03.218Z,938.71
2019-05-22T10:01:03.661Z,938.76
2019-05-22T10:02:04.716Z,938.73
2019-05-22T10:03:05.401Z,938.76
2019-05-22T10:04:05.874Z,938.74
2019-05-22T10:05:06.736Z,938.79
2019-05-22T10:06:07.645Z,938.75
2019-05-22T10:07:08.096Z,938.75
2019-05-22T10:08:09.007Z,938.75
2019-05-22T10:09:08.934Z,938.75
2019-05-22T10:10:09.475Z,938.75
2019-05-22T10:11:10.188Z,938.75
2019-05-22T10:12:11.214Z,938.74
2019-05-22T10:13:11.380Z,938.75
2019-05-22T10:14:11.757Z,938.78
2019-05-22T10:15:12.102Z,938.75
2019-05-22T10:16:13.178Z,938.77
2019-05-22T10:17:14.568Z,938.77
2019-05-22T10:18:14.772Z,938.77
2019-05-22T10:19:15.498Z,938.78
2019-05-22T10:20:16.252Z,938.76
2019-05-22T10:21:16.770Z,938.77
2019-05-22T10:22:16.900Z,938.78
2019-05-22T10:23:17.580Z,938.73
2019-05-22T10:24:18.004Z,938.76
2019-05-22T10:25:18.106Z,938.75
2019-05-22T10:26:18.542Z,938.74
2019-05-22T10:27:19.346Z,938.75
2019-05-22T10:28:20.404Z,938.73
2019-05-22T10:29:20.944Z,938.75
2019-05-22T10:30:22.519Z,938.76
2019-05-22T10:31:22.306Z,938.74
2019-05-22T10:32:22.736Z,938.79
2019-05-22T10:33:23.870Z,938.76
2019-05-22T10:34:24.876Z,938.76
2019-05-22T10:35:25.303Z,938.78
2019-05-22T10:36:25.558Z,938.8
2019-05-22T10:37:26.289Z,938.8
2019-05-22T10:38:26.652Z,938.8
2019-05-22T10:39:27.583Z,938.77
2019-05-22T10:40:28.650Z,938.79
2019-05-22T10:41:29.023Z,938.76
2019-05-22T10:42:30.026Z,938.78
2019-05-22T10:43:30.246Z,938.8
2019-05-22T10:44:30.889Z,938.8
2019-05-22T10:45:31.090Z,938.81
2019-05-22T10:46:31.804Z,938.83
2019-05-22T10:47:32.239Z,938.84
2019-05-22T10:48:32.613Z,938.82
2019-05-22T10:49:32.940Z,938.83
2019-05-22T10:50:33.010Z,938.84
2019-05-22T10:51:33.207Z,938.83
2019-05-22T10:52:33.900Z,938.83
2019-05-22T10:53:34.569Z,938.84
2019-05-22T10:54:34.738Z,938.83
2019-05-22T10:55:35.495Z,938.88
2019-05-22T10:56:36.517Z,938.84
2019-05-22T10:57:40.617Z,938.86
2019-05-22T10:58:37.966Z,938.86
2019-05-22T10:59:38.741Z,938.87
2019-05-22T11:00:38.881Z,938.86
2019-05-22T11:01:39.012Z,938.86
2019-05-22T11:02:39.897Z,938.83
2019-05-22T11:03:40.909Z,938.84
2019-05-22T11:04:41.768Z,938.84
2019-05-22T11:05:42.592Z,938.85
2019-05-22T11:06:43.376Z,938.88
2019-05-22T11:07:44.024Z,938.86
2019-05-22T11:08:44.851Z,938.87
2019-05-22T11:09:45.370Z,938.86
2019-05-22T11:10:46.508Z,938.85
2019-05-22T11:11:47.269Z,938.85
2019-05-22T11:12:47.996Z,938.84
2019-05-22T11:14:00.453Z,938.83
2019-05-22T11:14:49.564Z,938.85
2019-05-22T11:15:50.540Z,938.83
2019-05-22T11:16:50.667Z,938.84
2019-05-22T11:17:51.245Z,938.85
2019-05-22T11:18:51.671Z,938.82
2019-05-22T11:19:51.791Z,938.85
2019-05-22T11:20:52.212Z,938.82
2019-05-22T11:21:52.649Z,938.85
2019-05-22T11:22:52.784Z,938.83
2019-05-22T11:23:53.459Z,938.8
2019-05-22T11:24:53.920Z,938.83
2019-05-22T11:25:54.176Z,938.82
2019-05-22T11:26:55.188Z,938.78
2019-05-22T11:27:56.179Z,938.81
2019-05-22T11:28:56.399Z,938.8
2019-05-22T11:29:56.597Z,938.84
2019-05-22T11:30:57.303Z,938.84
2019-05-22T11:31:58.358Z,938.82
2019-05-22T11:32:59.177Z,938.84
2019-05-22T11:33:59.903Z,938.82
2019-05-22T11:35:00.439Z,938.87
2019-05-22T11:36:00.997Z,938.84
2019-05-22T11:37:01.754Z,938.89
2019-05-22T11:38:02.472Z,938.91
2019-05-22T11:39:03.131Z,938.89
2019-05-22T11:40:03.869Z,938.89
2019-05-22T11:41:05.362Z,938.92
2019-05-22T11:42:05.226Z,938.9
2019-05-22T11:43:06.000Z,938.92
2019-05-22T11:44:06.830Z,938.87
2019-05-22T11:45:07.565Z,938.86
2019-05-22T11:46:08.526Z,938.84
2019-05-22T11:47:09.293Z,938.86
2019-05-22T11:48:10.348Z,938.88
2019-05-22T11:49:10.887Z,938.89
2019-05-22T11:50:11.514Z,938.9
2019-05-22T11:51:12.442Z,938.85
2019-05-22T11:52:12.553Z,938.9
2019-05-22T11:53:13.292Z,938.91
2019-05-22T11:54:14.057Z,938.88
2019-05-22T11:55:14.487Z,938.88
2019-05-22T11:56:21.259Z,938.89
2019-05-22T11:57:21.675Z,938.88
2019-05-22T11:58:22.350Z,938.87
2019-05-22T11:59:22.839Z,938.88
2019-05-22T12:00:23.584Z,938.87
2019-05-22T12:01:24.649Z,938.9
2019-05-22T12:02:25.128Z,938.9
2019-05-22T12:03:25.588Z,938.87
2019-05-22T12:04:26.586Z,938.9
2019-05-22T12:05:27.097Z,938.9
2019-05-22T12:06:27.353Z,938.92
2019-05-22T12:07:28.076Z,938.91
2019-05-22T12:08:28.668Z,938.89
2019-05-22T12:09:29.066Z,938.91
2019-05-22T12:10:29.775Z,938.95
2019-05-22T12:11:30.312Z,938.91
2019-05-22T12:12:34.642Z,938.91
2019-05-22T12:13:31.719Z,938.93
2019-05-22T12:14:32.455Z,938.96
2019-05-22T12:15:33.087Z,938.97
2019-05-22T12:16:33.414Z,938.95
2019-05-22T12:17:37.816Z,938.96
2019-05-22T12:18:35.195Z,938.96
2019-05-22T12:19:35.609Z,938.94
2019-05-22T12:20:36.038Z,938.97
2019-05-22T12:21:36.168Z,938.96
2019-05-22T12:22:36.580Z,938.98
2019-05-22T12:23:37.026Z,938.98
2019-05-22T12:24:37.802Z,939.01
2019-05-22T12:25:37.321Z,939.01
2019-05-22T12:26:38.057Z,938.99
2019-05-22T12:27:39.038Z,938.99
2019-05-22T12:28:39.478Z,938.98
2019-05-22T12:29:40.254Z,939
2019-05-22T12:30:40.638Z,938.99
2019-05-22T12:31:41.450Z,938.97
2019-05-22T12:32:41.933Z,939
2019-05-22T12:33:42.016Z,939
2019-05-22T12:34:42.696Z,939.03
2019-05-22T12:35:43.290Z,938.99
2019-05-22T12:36:43.791Z,939.02
2019-05-22T12:37:44.058Z,939.01